sensor_id;sensor_type;location;lat;lon;timestamp;P1;durP1;ratioP1;P2;durP2;ratioP2
20896;SDS011;10608;42.600;23.398;2023-04-24T00:01:27;13.03;;;12.47;;
20896;SDS011;10608;42.600;23.398;2023-04-24T00:03:54;14.50;;;13.90;;
20896;SDS011;10608;42.600;23.398;2023-04-24T00:06:20;14.20;;;13.60;;
20896;SDS011;10608;42.600;23.398;2023-04-24T00:08:48;15.67;;;15.07;;
20896;SDS011;10608;42.600;23.398;2023-04-24T00:11:13;12.30;;;11.80;;
20896;SDS011;10608;42.600;23.398;2023-04-24T00:13:39;13.87;;;13.27;;
20896;SDS011;10608;42.600;23.398;2023-04-24T00:16:04;14.70;;;13.83;;
20896;SDS011;10608;42.600;23.398;2023-04-24T00:18:30;11.43;;;11.03;;
20896;SDS011;10608;42.600;23.398;2023-04-24T00:20:55;14.20;;;13.60;;
20896;SDS011;10608;42.600;23.398;2023-04-24T00:23:20;12.57;;;12.07;;
20896;SDS011;10608;42.600;23.398;2023-04-24T00:25:46;14.40;;;13.80;;
20896;SDS011;10608;42.600;23.398;2023-04-24T00:28:11;14.00;;;13.50;;
20896;SDS011;10608;42.600;23.398;2023-04-24T00:30:36;13.53;;;13.03;;
20896;SDS011;10608;42.600;23.398;2023-04-24T00:33:01;14.03;;;13.43;;
20896;SDS011;10608;42.600;23.398;2023-04-24T00:35:26;17.03;;;16.33;;
20896;SDS011;10608;42.600;23.398;2023-04-24T00:37:52;19.00;;;18.20;;
20896;SDS011;10608;42.600;23.398;2023-04-24T00:40:17;14.23;;;13.63;;
20896;SDS011;10608;42.600;23.398;2023-04-24T00:42:43;14.30;;;13.70;;
20896;SDS011;10608;42.600;23.398;2023-04-24T00:45:08;11.40;;;10.90;;
20896;SDS011;10608;42.600;23.398;2023-04-24T00:47:34;11.30;;;10.90;;
20896;SDS011;10608;42.600;23.398;2023-04-24T00:50:03;14.77;;;14.17;;
20896;SDS011;10608;42.600;23.398;2023-04-24T00:52:28;11.57;;;11.07;;
20896;SDS011;10608;42.600;23.398;2023-04-24T00:54:56;9.97;;;9.57;;
20896;SDS011;10608;42.600;23.398;2023-04-24T00:57:21;9.50;;;9.10;;
20896;SDS011;10608;42.600;23.398;2023-04-24T00:59:48;10.33;;;9.93;;
20896;SDS011;10608;42.600;23.398;2023-04-24T01:02:13;10.90;;;10.50;;
20896;SDS011;10608;42.600;23.398;2023-04-24T01:04:40;11.60;;;11.10;;
20896;SDS011;10608;42.600;23.398;2023-04-24T01:07:05;10.30;;;9.90;;
20896;SDS011;10608;42.600;23.398;2023-04-24T01:09:36;9.77;;;9.37;;
20896;SDS011;10608;42.600;23.398;2023-04-24T01:12:02;11.03;;;10.63;;
20896;SDS011;10608;42.600;23.398;2023-04-24T01:14:27;10.27;;;9.87;;
20896;SDS011;10608;42.600;23.398;2023-04-24T01:16:53;11.70;;;11.23;;
20896;SDS011;10608;42.600;23.398;2023-04-24T01:19:18;12.13;;;11.63;;
20896;SDS011;10608;42.600;23.398;2023-04-24T01:21:44;13.50;;;12.90;;
20896;SDS011;10608;42.600;23.398;2023-04-24T01:24:10;12.90;;;12.40;;
20896;SDS011;10608;42.600;23.398;2023-04-24T01:26:35;10.90;;;10.50;;
20896;SDS011;10608;42.600;23.398;2023-04-24T01:29:01;12.40;;;11.90;;
20896;SDS011;10608;42.600;23.398;2023-04-24T01:31:26;10.97;;;10.47;;
20896;SDS011;10608;42.600;23.398;2023-04-24T01:33:51;10.47;;;10.07;;
20896;SDS011;10608;42.600;23.398;2023-04-24T01:36:17;11.73;;;11.23;;
20896;SDS011;10608;42.600;23.398;2023-04-24T01:38:43;11.57;;;11.07;;
20896;SDS011;10608;42.600;23.398;2023-04-24T01:41:08;14.47;;;13.80;;
20896;SDS011;10608;42.600;23.398;2023-04-24T01:43:34;14.40;;;13.77;;
20896;SDS011;10608;42.600;23.398;2023-04-24T01:46:00;12.57;;;11.87;;
20896;SDS011;10608;42.600;23.398;2023-04-24T01:48:25;11.07;;;10.67;;
20896;SDS011;10608;42.600;23.398;2023-04-24T01:50:50;14.87;;;14.27;;
20896;SDS011;10608;42.600;23.398;2023-04-24T01:53:15;35.07;;;33.67;;
20896;SDS011;10608;42.600;23.398;2023-04-24T01:55:41;23.20;;;22.30;;
20896;SDS011;10608;42.600;23.398;2023-04-24T01:58:06;17.60;;;16.90;;
20896;SDS011;10608;42.600;23.398;2023-04-24T02:00:31;17.53;;;16.83;;
20896;SDS011;10608;42.600;23.398;2023-04-24T02:02:57;14.03;;;13.43;;
20896;SDS011;10608;42.600;23.398;2023-04-24T02:05:22;18.23;;;17.47;;
20896;SDS011;10608;42.600;23.398;2023-04-24T02:07:47;14.27;;;13.70;;
20896;SDS011;10608;42.600;23.398;2023-04-24T02:10:13;19.60;;;18.80;;
20896;SDS011;10608;42.600;23.398;2023-04-24T02:12:38;22.67;;;21.67;;
20896;SDS011;10608;42.600;23.398;2023-04-24T02:15:03;26.00;;;24.97;;
20896;SDS011;10608;42.600;23.398;2023-04-24T02:17:29;22.67;;;21.67;;
20896;SDS011;10608;42.600;23.398;2023-04-24T02:19:54;17.90;;;17.20;;
20896;SDS011;10608;42.600;23.398;2023-04-24T02:22:19;17.47;;;16.67;;
20896;SDS011;10608;42.600;23.398;2023-04-24T02:24:44;17.93;;;17.23;;
20896;SDS011;10608;42.600;23.398;2023-04-24T02:27:10;18.97;;;18.23;;
20896;SDS011;10608;42.600;23.398;2023-04-24T02:29:36;21.23;;;20.33;;
20896;SDS011;10608;42.600;23.398;2023-04-24T02:32:01;18.00;;;17.30;;
20896;SDS011;10608;42.600;23.398;2023-04-24T02:34:26;15.10;;;14.50;;
20896;SDS011;10608;42.600;23.398;2023-04-24T02:36:52;13.67;;;13.17;;
20896;SDS011;10608;42.600;23.398;2023-04-24T02:39:18;14.60;;;13.97;;
20896;SDS011;10608;42.600;23.398;2023-04-24T02:41:44;14.37;;;13.67;;
20896;SDS011;10608;42.600;23.398;2023-04-24T02:44:09;16.73;;;15.93;;
20896;SDS011;10608;42.600;23.398;2023-04-24T02:46:34;19.83;;;19.03;;
20896;SDS011;10608;42.600;23.398;2023-04-24T02:49:00;16.00;;;15.30;;
20896;SDS011;10608;42.600;23.398;2023-04-24T02:51:25;13.67;;;13.10;;
20896;SDS011;10608;42.600;23.398;2023-04-24T02:53:50;14.30;;;13.70;;
20896;SDS011;10608;42.600;23.398;2023-04-24T02:56:15;12.47;;;11.97;;
20896;SDS011;10608;42.600;23.398;2023-04-24T02:58:41;14.77;;;14.17;;
20896;SDS011;10608;42.600;23.398;2023-04-24T03:01:07;13.37;;;12.83;;
20896;SDS011;10608;42.600;23.398;2023-04-24T03:03:32;16.30;;;15.37;;
20896;SDS011;10608;42.600;23.398;2023-04-24T03:05:57;16.40;;;15.70;;
20896;SDS011;10608;42.600;23.398;2023-04-24T03:08:23;14.10;;;13.50;;
20896;SDS011;10608;42.600;23.398;2023-04-24T03:10:48;14.97;;;14.37;;
20896;SDS011;10608;42.600;23.398;2023-04-24T03:13:14;17.70;;;17.00;;
20896;SDS011;10608;42.600;23.398;2023-04-24T03:15:40;22.47;;;21.47;;
20896;SDS011;10608;42.600;23.398;2023-04-24T03:18:05;22.57;;;21.67;;
20896;SDS011;10608;42.600;23.398;2023-04-24T03:20:30;23.17;;;22.23;;
20896;SDS011;10608;42.600;23.398;2023-04-24T03:22:55;28.50;;;27.20;;
20896;SDS011;10608;42.600;23.398;2023-04-24T03:25:22;25.13;;;24.03;;
20896;SDS011;10608;42.600;23.398;2023-04-24T03:27:47;25.83;;;24.83;;
20896;SDS011;10608;42.600;23.398;2023-04-24T03:30:12;28.80;;;27.60;;
20896;SDS011;10608;42.600;23.398;2023-04-24T03:32:38;31.57;;;30.30;;
20896;SDS011;10608;42.600;23.398;2023-04-24T03:35:04;37.33;;;35.73;;
20896;SDS011;10608;42.600;23.398;2023-04-24T03:37:29;37.33;;;35.73;;
20896;SDS011;10608;42.600;23.398;2023-04-24T03:39:55;34.03;;;32.63;;
20896;SDS011;10608;42.600;23.398;2023-04-24T03:42:20;32.13;;;30.80;;
20896;SDS011;10608;42.600;23.398;2023-04-24T03:44:45;32.90;;;31.57;;
20896;SDS011;10608;42.600;23.398;2023-04-24T03:47:11;40.33;;;38.67;;
20896;SDS011;10608;42.600;23.398;2023-04-24T03:49:36;35.23;;;33.83;;
20896;SDS011;10608;42.600;23.398;2023-04-24T03:52:01;31.17;;;29.90;;
20896;SDS011;10608;42.600;23.398;2023-04-24T03:54:27;25.53;;;24.53;;
20896;SDS011;10608;42.600;23.398;2023-04-24T03:56:52;19.90;;;19.10;;
20896;SDS011;10608;42.600;23.398;2023-04-24T03:59:17;26.67;;;25.50;;
20896;SDS011;10608;42.600;23.398;2023-04-24T04:01:42;22.67;;;21.77;;
20896;SDS011;10608;42.600;23.398;2023-04-24T04:04:07;21.23;;;20.33;;
20896;SDS011;10608;42.600;23.398;2023-04-24T04:06:33;21.07;;;20.20;;
20896;SDS011;10608;42.600;23.398;2023-04-24T04:08:59;26.00;;;24.93;;
20896;SDS011;10608;42.600;23.398;2023-04-24T04:11:24;31.37;;;30.00;;
20896;SDS011;10608;42.600;23.398;2023-04-24T04:13:50;28.17;;;26.87;;
20896;SDS011;10608;42.600;23.398;2023-04-24T04:16:15;42.07;;;40.30;;
20896;SDS011;10608;42.600;23.398;2023-04-24T04:18:44;21.47;;;20.60;;
20896;SDS011;10608;42.600;23.398;2023-04-24T04:21:09;27.53;;;26.37;;
20896;SDS011;10608;42.600;23.398;2023-04-24T04:23:35;19.53;;;18.73;;
20896;SDS011;10608;42.600;23.398;2023-04-24T04:26:00;32.20;;;30.83;;
20896;SDS011;10608;42.600;23.398;2023-04-24T04:28:26;37.40;;;35.87;;
20896;SDS011;10608;42.600;23.398;2023-04-24T04:30:51;16.70;;;16.00;;
20896;SDS011;10608;42.600;23.398;2023-04-24T04:33:20;59.37;;;56.87;;
20896;SDS011;10608;42.600;23.398;2023-04-24T04:35:45;44.80;;;42.90;;
20896;SDS011;10608;42.600;23.398;2023-04-24T04:38:14;36.97;;;35.43;;
20896;SDS011;10608;42.600;23.398;2023-04-24T04:40:40;35.60;;;34.10;;
20896;SDS011;10608;42.600;23.398;2023-04-24T04:43:05;31.40;;;30.10;;
20896;SDS011;10608;42.600;23.398;2023-04-24T04:45:31;22.90;;;21.90;;
20896;SDS011;10608;42.600;23.398;2023-04-24T04:47:57;22.37;;;21.43;;
20896;SDS011;10608;42.600;23.398;2023-04-24T04:50:23;28.57;;;27.40;;
20896;SDS011;10608;42.600;23.398;2023-04-24T04:52:48;16.60;;;15.80;;
20896;SDS011;10608;42.600;23.398;2023-04-24T04:55:13;33.37;;;32.00;;
20896;SDS011;10608;42.600;23.398;2023-04-24T04:57:39;26.13;;;24.97;;
20896;SDS011;10608;42.600;23.398;2023-04-24T05:00:04;21.07;;;20.17;;
20896;SDS011;10608;42.600;23.398;2023-04-24T05:02:30;17.53;;;16.83;;
20896;SDS011;10608;42.600;23.398;2023-04-24T05:04:55;16.43;;;15.73;;
20896;SDS011;10608;42.600;23.398;2023-04-24T05:07:20;16.57;;;15.87;;
20896;SDS011;10608;42.600;23.398;2023-04-24T05:09:46;14.67;;;14.07;;
20896;SDS011;10608;42.600;23.398;2023-04-24T05:12:11;19.67;;;18.83;;
20896;SDS011;10608;42.600;23.398;2023-04-24T05:14:36;17.07;;;16.37;;
20896;SDS011;10608;42.600;23.398;2023-04-24T05:17:02;17.53;;;16.83;;
20896;SDS011;10608;42.600;23.398;2023-04-24T05:19:27;19.63;;;18.83;;
20896;SDS011;10608;42.600;23.398;2023-04-24T05:21:53;27.50;;;26.40;;
20896;SDS011;10608;42.600;23.398;2023-04-24T05:24:18;27.90;;;25.60;;
20896;SDS011;10608;42.600;23.398;2023-04-24T05:26:43;18.10;;;17.23;;
20896;SDS011;10608;42.600;23.398;2023-04-24T05:29:08;19.83;;;19.03;;
20896;SDS011;10608;42.600;23.398;2023-04-24T05:31:33;17.80;;;17.10;;
20896;SDS011;10608;42.600;23.398;2023-04-24T05:33:59;17.03;;;16.27;;
20896;SDS011;10608;42.600;23.398;2023-04-24T05:36:24;19.17;;;18.30;;
20896;SDS011;10608;42.600;23.398;2023-04-24T05:38:50;26.77;;;25.67;;
20896;SDS011;10608;42.600;23.398;2023-04-24T05:41:15;23.93;;;22.93;;
20896;SDS011;10608;42.600;23.398;2023-04-24T05:43:40;17.17;;;16.47;;
20896;SDS011;10608;42.600;23.398;2023-04-24T05:46:05;25.43;;;24.33;;
20896;SDS011;10608;42.600;23.398;2023-04-24T05:48:31;25.27;;;24.20;;
20896;SDS011;10608;42.600;23.398;2023-04-24T05:50:56;20.47;;;19.67;;
20896;SDS011;10608;42.600;23.398;2023-04-24T05:53:22;15.43;;;14.73;;
20896;SDS011;10608;42.600;23.398;2023-04-24T05:55:47;17.27;;;16.47;;
20896;SDS011;10608;42.600;23.398;2023-04-24T05:58:12;15.53;;;14.83;;
20896;SDS011;10608;42.600;23.398;2023-04-24T06:00:37;33.50;;;31.53;;
20896;SDS011;10608;42.600;23.398;2023-04-24T06:03:04;42.93;;;41.13;;
20896;SDS011;10608;42.600;23.398;2023-04-24T06:05:30;80.77;;;77.50;;
20896;SDS011;10608;42.600;23.398;2023-04-24T06:07:55;65.73;;;63.10;;
20896;SDS011;10608;42.600;23.398;2023-04-24T06:10:20;58.87;;;56.50;;
20896;SDS011;10608;42.600;23.398;2023-04-24T06:12:46;65.17;;;62.53;;
20896;SDS011;10608;42.600;23.398;2023-04-24T06:15:11;57.60;;;55.20;;
20896;SDS011;10608;42.600;23.398;2023-04-24T06:17:36;54.37;;;52.17;;
20896;SDS011;10608;42.600;23.398;2023-04-24T06:20:02;46.60;;;44.67;;
20896;SDS011;10608;42.600;23.398;2023-04-24T06:22:30;33.60;;;32.20;;
20896;SDS011;10608;42.600;23.398;2023-04-24T06:24:55;29.10;;;27.90;;
20896;SDS011;10608;42.600;23.398;2023-04-24T06:27:20;20.83;;;19.97;;
20896;SDS011;10608;42.600;23.398;2023-04-24T06:29:45;17.43;;;16.70;;
20896;SDS011;10608;42.600;23.398;2023-04-24T06:32:11;14.27;;;13.37;;
20896;SDS011;10608;42.600;23.398;2023-04-24T06:34:36;19.27;;;18.43;;
20896;SDS011;10608;42.600;23.398;2023-04-24T06:37:01;53.00;;;50.67;;
20896;SDS011;10608;42.600;23.398;2023-04-24T06:39:27;27.27;;;26.10;;
20896;SDS011;10608;42.600;23.398;2023-04-24T06:41:52;13.90;;;13.40;;
20896;SDS011;10608;42.600;23.398;2023-04-24T06:44:17;18.57;;;17.77;;
20896;SDS011;10608;42.600;23.398;2023-04-24T06:46:42;14.57;;;13.87;;
20896;SDS011;10608;42.600;23.398;2023-04-24T06:49:08;14.43;;;13.83;;
20896;SDS011;10608;42.600;23.398;2023-04-24T06:51:33;16.83;;;16.10;;
20896;SDS011;10608;42.600;23.398;2023-04-24T06:53:58;27.17;;;26.07;;
20896;SDS011;10608;42.600;23.398;2023-04-24T06:56:24;22.67;;;21.73;;
20896;SDS011;10608;42.600;23.398;2023-04-24T06:58:50;18.67;;;17.80;;
20896;SDS011;10608;42.600;23.398;2023-04-24T07:01:16;21.43;;;20.30;;
20896;SDS011;10608;42.600;23.398;2023-04-24T07:03:41;22.03;;;21.13;;
20896;SDS011;10608;42.600;23.398;2023-04-24T07:06:07;17.63;;;16.83;;
20896;SDS011;10608;42.600;23.398;2023-04-24T07:08:32;13.87;;;13.20;;
20896;SDS011;10608;42.600;23.398;2023-04-24T07:10:58;12.10;;;11.60;;
20896;SDS011;10608;42.600;23.398;2023-04-24T07:13:23;36.50;;;34.87;;
20896;SDS011;10608;42.600;23.398;2023-04-24T07:15:49;86.17;;;82.70;;
20896;SDS011;10608;42.600;23.398;2023-04-24T07:18:19;19.33;;;18.33;;
20896;SDS011;10608;42.600;23.398;2023-04-24T07:20:44;17.70;;;17.00;;
20896;SDS011;10608;42.600;23.398;2023-04-24T07:23:10;30.13;;;28.87;;
20896;SDS011;10608;42.600;23.398;2023-04-24T07:25:35;22.03;;;21.10;;
20896;SDS011;10608;42.600;23.398;2023-04-24T07:28:00;10.27;;;9.87;;
20896;SDS011;10608;42.600;23.398;2023-04-24T07:30:25;13.30;;;12.60;;
20896;SDS011;10608;42.600;23.398;2023-04-24T07:32:51;27.10;;;25.90;;
20896;SDS011;10608;42.600;23.398;2023-04-24T07:35:16;27.23;;;25.53;;
20896;SDS011;10608;42.600;23.398;2023-04-24T07:37:41;27.13;;;26.03;;
20896;SDS011;10608;42.600;23.398;2023-04-24T07:40:11;29.63;;;28.30;;
20896;SDS011;10608;42.600;23.398;2023-04-24T07:42:36;21.30;;;20.40;;
20896;SDS011;10608;42.600;23.398;2023-04-24T07:45:01;19.17;;;18.33;;
20896;SDS011;10608;42.600;23.398;2023-04-24T07:47:26;11.43;;;10.83;;
20896;SDS011;10608;42.600;23.398;2023-04-24T07:49:52;22.00;;;21.03;;
20896;SDS011;10608;42.600;23.398;2023-04-24T07:52:17;20.93;;;19.93;;
20896;SDS011;10608;42.600;23.398;2023-04-24T07:54:42;20.53;;;19.63;;
20896;SDS011;10608;42.600;23.398;2023-04-24T07:57:08;15.23;;;14.53;;
20896;SDS011;10608;42.600;23.398;2023-04-24T07:59:33;19.90;;;19.00;;
20896;SDS011;10608;42.600;23.398;2023-04-24T08:01:58;29.00;;;27.57;;
20896;SDS011;10608;42.600;23.398;2023-04-24T08:04:24;12.53;;;12.00;;
20896;SDS011;10608;42.600;23.398;2023-04-24T08:06:49;18.30;;;17.50;;
20896;SDS011;10608;42.600;23.398;2023-04-24T08:09:14;19.20;;;18.40;;
20896;SDS011;10608;42.600;23.398;2023-04-24T08:11:40;19.77;;;18.77;;
20896;SDS011;10608;42.600;23.398;2023-04-24T08:14:05;19.43;;;18.40;;
20896;SDS011;10608;42.600;23.398;2023-04-24T08:16:31;24.90;;;23.80;;
20896;SDS011;10608;42.600;23.398;2023-04-24T08:18:57;24.93;;;23.83;;
20896;SDS011;10608;42.600;23.398;2023-04-24T08:21:22;23.77;;;22.67;;
20896;SDS011;10608;42.600;23.398;2023-04-24T08:23:48;23.70;;;22.70;;
20896;SDS011;10608;42.600;23.398;2023-04-24T08:26:13;16.77;;;16.07;;
20896;SDS011;10608;42.600;23.398;2023-04-24T08:28:38;36.13;;;34.63;;
20896;SDS011;10608;42.600;23.398;2023-04-24T08:31:04;22.03;;;20.90;;
20896;SDS011;10608;42.600;23.398;2023-04-24T08:33:29;32.40;;;30.80;;
20896;SDS011;10608;42.600;23.398;2023-04-24T08:36:08;52.70;;;50.43;;
20896;SDS011;10608;42.600;23.398;2023-04-24T08:38:33;93.87;;;90.07;;
20896;SDS011;10608;42.600;23.398;2023-04-24T08:40:59;119.70;;;114.87;;
20896;SDS011;10608;42.600;23.398;2023-04-24T08:43:24;78.87;;;75.67;;
20896;SDS011;10608;42.600;23.398;2023-04-24T08:45:51;42.30;;;40.57;;
20896;SDS011;10608;42.600;23.398;2023-04-24T08:48:16;28.77;;;27.57;;
20896;SDS011;10608;42.600;23.398;2023-04-24T08:50:42;17.17;;;16.37;;
20896;SDS011;10608;42.600;23.398;2023-04-24T08:53:09;17.37;;;16.67;;
20896;SDS011;10608;42.600;23.398;2023-04-24T08:55:35;15.93;;;15.13;;
20896;SDS011;10608;42.600;23.398;2023-04-24T08:58:00;15.63;;;14.93;;
20896;SDS011;10608;42.600;23.398;2023-04-24T09:00:26;15.07;;;14.43;;
20896;SDS011;10608;42.600;23.398;2023-04-24T09:02:53;12.33;;;11.83;;
20896;SDS011;10608;42.600;23.398;2023-04-24T09:05:18;25.23;;;24.07;;
20896;SDS011;10608;42.600;23.398;2023-04-24T09:07:46;15.00;;;14.33;;
20896;SDS011;10608;42.600;23.398;2023-04-24T09:10:13;12.93;;;12.40;;
20896;SDS011;10608;42.600;23.398;2023-04-24T09:12:38;11.60;;;11.10;;
20896;SDS011;10608;42.600;23.398;2023-04-24T09:15:04;11.87;;;11.37;;
20896;SDS011;10608;42.600;23.398;2023-04-24T09:17:32;11.33;;;10.83;;
20896;SDS011;10608;42.600;23.398;2023-04-24T09:19:57;16.43;;;15.73;;
20896;SDS011;10608;42.600;23.398;2023-04-24T09:22:23;28.70;;;27.50;;
20896;SDS011;10608;42.600;23.398;2023-04-24T09:24:48;57.87;;;55.47;;
20896;SDS011;10608;42.600;23.398;2023-04-24T09:27:24;88.63;;;85.03;;
20896;SDS011;10608;42.600;23.398;2023-04-24T09:29:56;28.60;;;27.43;;
20896;SDS011;10608;42.600;23.398;2023-04-24T09:32:22;74.77;;;71.67;;
20896;SDS011;10608;42.600;23.398;2023-04-24T09:34:49;42.30;;;40.57;;
20896;SDS011;10608;42.600;23.398;2023-04-24T09:37:27;17.93;;;17.20;;
20896;SDS011;10608;42.600;23.398;2023-04-24T09:40:12;20.60;;;19.73;;
20896;SDS011;10608;42.600;23.398;2023-04-24T09:42:38;55.40;;;53.10;;
20896;SDS011;10608;42.600;23.398;2023-04-24T09:45:03;114.10;;;109.27;;
20896;SDS011;10608;42.600;23.398;2023-04-24T09:47:35;128.97;;;123.77;;
20896;SDS011;10608;42.600;23.398;2023-04-24T09:50:01;112.80;;;108.03;;
20896;SDS011;10608;42.600;23.398;2023-04-24T09:52:33;130.57;;;125.23;;
20896;SDS011;10608;42.600;23.398;2023-04-24T09:54:58;127.50;;;122.30;;
20896;SDS011;10608;42.600;23.398;2023-04-24T09:57:24;47.13;;;45.13;;
20896;SDS011;10608;42.600;23.398;2023-04-24T09:59:49;45.03;;;43.13;;
20896;SDS011;10608;42.600;23.398;2023-04-24T10:02:18;49.40;;;47.33;;
20896;SDS011;10608;42.600;23.398;2023-04-24T10:04:53;27.70;;;26.57;;
20896;SDS011;10608;42.600;23.398;2023-04-24T10:07:20;36.63;;;35.13;;
20896;SDS011;10608;42.600;23.398;2023-04-24T10:09:45;30.47;;;29.17;;
20896;SDS011;10608;42.600;23.398;2023-04-24T10:12:11;14.67;;;14.07;;
20896;SDS011;10608;42.600;23.398;2023-04-24T10:14:36;14.60;;;14.00;;
20896;SDS011;10608;42.600;23.398;2023-04-24T10:17:02;18.07;;;17.37;;
20896;SDS011;10608;42.600;23.398;2023-04-24T10:19:27;17.50;;;16.80;;
20896;SDS011;10608;42.600;23.398;2023-04-24T10:21:54;18.63;;;17.83;;
20896;SDS011;10608;42.600;23.398;2023-04-24T10:24:21;18.27;;;17.47;;
20896;SDS011;10608;42.600;23.398;2023-04-24T10:26:46;16.63;;;15.93;;
20896;SDS011;10608;42.600;23.398;2023-04-24T10:29:13;16.10;;;15.40;;
20896;SDS011;10608;42.600;23.398;2023-04-24T10:31:40;18.03;;;17.30;;
20896;SDS011;10608;42.600;23.398;2023-04-24T10:34:05;25.63;;;24.57;;
20896;SDS011;10608;42.600;23.398;2023-04-24T10:36:32;17.30;;;16.57;;
20896;SDS011;10608;42.600;23.398;2023-04-24T10:38:59;16.50;;;15.77;;
20896;SDS011;10608;42.600;23.398;2023-04-24T10:41:25;21.73;;;20.83;;
20896;SDS011;10608;42.600;23.398;2023-04-24T10:46:35;22.67;;;21.77;;
20896;SDS011;10608;42.600;23.398;2023-04-24T10:49:03;16.67;;;15.97;;
20896;SDS011;10608;42.600;23.398;2023-04-24T10:56:47;11.07;;;10.63;;
20896;SDS011;10608;42.600;23.398;2023-04-24T10:59:13;12.87;;;12.37;;
20896;SDS011;10608;42.600;23.398;2023-04-24T11:01:52;11.33;;;10.93;;
20896;SDS011;10608;42.600;23.398;2023-04-24T11:04:21;10.73;;;10.33;;
20896;SDS011;10608;42.600;23.398;2023-04-24T11:06:53;15.83;;;15.17;;
20896;SDS011;10608;42.600;23.398;2023-04-24T11:09:18;15.97;;;15.33;;
20896;SDS011;10608;42.600;23.398;2023-04-24T11:11:46;21.63;;;20.73;;
20896;SDS011;10608;42.600;23.398;2023-04-24T11:14:14;56.70;;;54.43;;
20896;SDS011;10608;42.600;23.398;2023-04-24T11:16:51;60.33;;;57.90;;
20896;SDS011;10608;42.600;23.398;2023-04-24T11:19:20;42.00;;;40.23;;
20896;SDS011;10608;42.600;23.398;2023-04-24T11:21:54;32.70;;;31.30;;
20896;SDS011;10608;42.600;23.398;2023-04-24T11:24:37;25.83;;;24.67;;
20896;SDS011;10608;42.600;23.398;2023-04-24T11:29:39;49.67;;;46.97;;
20896;SDS011;10608;42.600;23.398;2023-04-24T11:32:15;35.30;;;33.87;;
20896;SDS011;10608;42.600;23.398;2023-04-24T11:34:44;31.53;;;30.17;;
20896;SDS011;10608;42.600;23.398;2023-04-24T11:37:10;14.20;;;13.57;;
20896;SDS011;10608;42.600;23.398;2023-04-24T11:39:38;38.50;;;36.90;;
20896;SDS011;10608;42.600;23.398;2023-04-24T11:42:03;20.27;;;19.47;;
20896;SDS011;10608;42.600;23.398;2023-04-24T11:44:31;115.60;;;110.93;;
20896;SDS011;10608;42.600;23.398;2023-04-24T11:46:56;21.47;;;20.63;;
20896;SDS011;10608;42.600;23.398;2023-04-24T11:49:22;10.93;;;10.53;;
20896;SDS011;10608;42.600;23.398;2023-04-24T11:51:47;59.33;;;56.93;;
20896;SDS011;10608;42.600;23.398;2023-04-24T11:54:12;21.60;;;20.70;;
20896;SDS011;10608;42.600;23.398;2023-04-24T11:56:37;28.17;;;27.03;;
20896;SDS011;10608;42.600;23.398;2023-04-24T11:59:04;20.70;;;19.87;;
20896;SDS011;10608;42.600;23.398;2023-04-24T12:01:29;45.17;;;43.37;;
20896;SDS011;10608;42.600;23.398;2023-04-24T12:03:59;85.13;;;81.70;;
20896;SDS011;10608;42.600;23.398;2023-04-24T12:06:24;30.73;;;29.50;;
20896;SDS011;10608;42.600;23.398;2023-04-24T12:08:50;25.33;;;24.33;;
20896;SDS011;10608;42.600;23.398;2023-04-24T12:11:17;42.10;;;40.33;;
20896;SDS011;10608;42.600;23.398;2023-04-24T12:13:43;52.33;;;50.20;;
20896;SDS011;10608;42.600;23.398;2023-04-24T12:16:08;73.83;;;70.90;;
20896;SDS011;10608;42.600;23.398;2023-04-24T12:18:34;84.10;;;80.80;;
20896;SDS011;10608;42.600;23.398;2023-04-24T12:24:00;33.77;;;32.33;;
20896;SDS011;10608;42.600;23.398;2023-04-24T12:26:25;130.10;;;124.93;;
20896;SDS011;10608;42.600;23.398;2023-04-24T12:28:52;197.37;;;189.73;;
20896;SDS011;10608;42.600;23.398;2023-04-24T12:31:17;201.60;;;193.80;;
20896;SDS011;10608;42.600;23.398;2023-04-24T12:33:43;183.23;;;176.03;;
20896;SDS011;10608;42.600;23.398;2023-04-24T12:36:11;26.60;;;25.50;;
20896;SDS011;10608;42.600;23.398;2023-04-24T12:38:37;34.73;;;33.30;;
20896;SDS011;10608;42.600;23.398;2023-04-24T12:41:09;21.30;;;20.40;;
20896;SDS011;10608;42.600;23.398;2023-04-24T12:43:34;35.00;;;33.57;;
20896;SDS011;10608;42.600;23.398;2023-04-24T12:46:00;16.63;;;15.93;;
20896;SDS011;10608;42.600;23.398;2023-04-24T12:48:26;32.60;;;31.17;;
20896;SDS011;10608;42.600;23.398;2023-04-24T12:50:51;23.43;;;22.23;;
20896;SDS011;10608;42.600;23.398;2023-04-24T12:53:16;19.70;;;18.80;;
20896;SDS011;10608;42.600;23.398;2023-04-24T12:55:41;32.70;;;31.30;;
20896;SDS011;10608;42.600;23.398;2023-04-24T12:58:07;24.97;;;23.97;;
20896;SDS011;10608;42.600;23.398;2023-04-24T13:00:32;21.93;;;21.03;;
20896;SDS011;10608;42.600;23.398;2023-04-24T13:02:58;17.73;;;17.03;;
20896;SDS011;10608;42.600;23.398;2023-04-24T13:05:23;15.70;;;15.10;;
20896;SDS011;10608;42.600;23.398;2023-04-24T13:07:48;17.77;;;17.00;;
20896;SDS011;10608;42.600;23.398;2023-04-24T13:10:14;18.80;;;18.00;;
20896;SDS011;10608;42.600;23.398;2023-04-24T13:12:39;17.97;;;17.07;;
20896;SDS011;10608;42.600;23.398;2023-04-24T13:15:05;17.57;;;16.87;;
20896;SDS011;10608;42.600;23.398;2023-04-24T13:17:30;17.10;;;16.37;;
20896;SDS011;10608;42.600;23.398;2023-04-24T13:19:56;14.97;;;14.13;;
20896;SDS011;10608;42.600;23.398;2023-04-24T13:22:21;18.33;;;17.57;;
20896;SDS011;10608;42.600;23.398;2023-04-24T13:24:47;18.53;;;17.77;;
20896;SDS011;10608;42.600;23.398;2023-04-24T13:27:14;27.50;;;26.40;;
20896;SDS011;10608;42.600;23.398;2023-04-24T13:29:39;43.83;;;42.00;;
20896;SDS011;10608;42.600;23.398;2023-04-24T13:32:04;25.97;;;24.87;;
20896;SDS011;10608;42.600;23.398;2023-04-24T13:34:30;23.33;;;22.40;;
20896;SDS011;10608;42.600;23.398;2023-04-24T13:36:56;26.33;;;25.23;;
20896;SDS011;10608;42.600;23.398;2023-04-24T13:39:22;31.27;;;29.93;;
20896;SDS011;10608;42.600;23.398;2023-04-24T13:41:47;21.70;;;20.70;;
20896;SDS011;10608;42.600;23.398;2023-04-24T13:44:13;25.90;;;24.80;;
20896;SDS011;10608;42.600;23.398;2023-04-24T13:46:38;38.10;;;36.47;;
20896;SDS011;10608;42.600;23.398;2023-04-24T13:49:04;40.57;;;38.87;;
20896;SDS011;10608;42.600;23.398;2023-04-24T13:51:29;52.23;;;50.07;;
20896;SDS011;10608;42.600;23.398;2023-04-24T13:53:55;51.57;;;49.00;;
20896;SDS011;10608;42.600;23.398;2023-04-24T13:56:20;27.10;;;26.00;;
20896;SDS011;10608;42.600;23.398;2023-04-24T13:58:46;38.27;;;36.67;;
20896;SDS011;10608;42.600;23.398;2023-04-24T14:01:11;23.47;;;22.47;;
20896;SDS011;10608;42.600;23.398;2023-04-24T14:03:37;27.23;;;26.13;;
20896;SDS011;10608;42.600;23.398;2023-04-24T14:06:02;22.07;;;21.17;;
20896;SDS011;10608;42.600;23.398;2023-04-24T14:08:27;27.17;;;26.07;;
20896;SDS011;10608;42.600;23.398;2023-04-24T14:10:53;22.27;;;21.37;;
20896;SDS011;10608;42.600;23.398;2023-04-24T14:13:18;30.13;;;28.93;;
20896;SDS011;10608;42.600;23.398;2023-04-24T14:15:43;29.17;;;27.93;;